Time;durP1;ratioP1;P1;durP2;ratioP2;P2;SDS_P1;SDS_P2;PMS_P1;PMS_P2;Temp;Humidity;BMP_temperature;BMP_pressure;BME280_temperature;BME280_humidity;BME280_pressure;Samples;Min_cycle;Max_cycle;Signal;HPM_P1;HPM_P2
2022/12/27 00:02:22;;;;;;;18.88;8.13;;;;;;;;;;5034697;28;20029;-58
2022/12/27 00:04:49;;;;;;;22.92;8.13;;;;;;;;;;5034267;28;20030;-61
2022/12/27 00:07:15;;;;;;;19.15;8.23;;;;;;;;;;5035210;28;20021;-58
2022/12/27 00:09:41;;;;;;;17.52;7.50;;;;;;;;;;5035211;28;20026;-61
2022/12/27 00:12:07;;;;;;;18.77;8.20;;;;;;;;;;5035328;28;20539;-60
2022/12/27 00:14:33;;;;;;;15.77;7.32;;;;;;;;;;5034484;28;20025;-61
2022/12/27 00:16:59;;;;;;;21.52;8.07;;;;;;;;;;5035420;28;20105;-57
2022/12/27 00:19:25;;;;;;;20.67;7.85;;;;;;;;;;5035573;28;20108;-61
2022/12/27 00:21:51;;;;;;;18.23;8.63;;;;;;;;;;5035308;28;20028;-62
2022/12/27 00:24:17;;;;;;;16.65;7.50;;;;;;;;;;5034701;28;20366;-61
2022/12/27 00:26:43;;;;;;;15.43;7.13;;;;;;;;;;5035215;28;20108;-63
2022/12/27 00:29:09;;;;;;;16.55;7.82;;;;;;;;;;5035185;28;20022;-64
2022/12/27 00:31:36;;;;;;;16.83;7.30;;;;;;;;;;5050553;28;20025;-59
2022/12/27 00:34:04;;;;;;;18.10;8.85;;;;;;;;;;5034297;28;20026;-60
2022/12/27 00:36:30;;;;;;;16.88;7.15;;;;;;;;;;5034948;28;20026;-60
2022/12/27 00:38:57;;;;;;;14.98;6.80;;;;;;;;;;5035121;28;20029;-58
2022/12/27 00:41:23;;;;;;;18.80;7.55;;;;;;;;;;5034997;28;20421;-63
2022/12/27 00:43:49;;;;;;;28.98;8.55;;;;;;;;;;5034265;28;20045;-63
2022/12/27 00:46:16;;;;;;;15.27;7.55;;;;;;;;;;5034933;28;20504;-64
2022/12/27 00:48:42;;;;;;;19.75;7.75;;;;;;;;;;5050212;28;20057;-60
2022/12/27 00:51:11;;;;;;;16.98;7.68;;;;;;;;;;5050147;28;20025;-64
2022/12/27 00:53:37;;;;;;;20.15;7.78;;;;;;;;;;5033887;28;20459;-61
2022/12/27 00:56:14;;;;;;;18.48;8.18;;;;;;;;;;5034701;28;20029;-59
2022/12/27 00:58:41;;;;;;;17.38;7.82;;;;;;;;;;5034690;28;20051;-62
2022/12/27 01:01:07;;;;;;;17.98;8.18;;;;;;;;;;5034374;28;20478;-57
2022/12/27 01:03:32;;;;;;;17.00;7.88;;;;;;;;;;5071035;23;20036;31
2022/12/27 01:06:03;;;;;;;18.48;8.30;;;;;;;;;;5011740;28;20046;-64
2022/12/27 01:08:29;;;;;;;17.40;7.80;;;;;;;;;;5014444;28;20026;-64
2022/12/27 01:10:55;;;;;;;20.80;7.95;;;;;;;;;;5014361;28;20106;-64
2022/12/27 01:13:21;;;;;;;16.80;8.07;;;;;;;;;;5012948;28;20558;-65
2022/12/27 01:15:47;;;;;;;23.50;8.55;;;;;;;;;;5014618;28;20024;-66
2022/12/27 01:18:13;;;;;;;16.08;8.10;;;;;;;;;;5014682;28;20490;-62
2022/12/27 01:20:39;;;;;;;17.52;8.85;;;;;;;;;;5014427;28;20069;-63
2022/12/27 01:23:05;;;;;;;21.70;7.93;;;;;;;;;;5012694;28;20398;-64
2022/12/27 01:25:31;;;;;;;20.13;8.52;;;;;;;;;;5013095;28;20029;-64
2022/12/27 01:27:56;;;;;;;17.30;8.52;;;;;;;;;;5013090;28;20025;-64
2022/12/27 01:30:22;;;;;;;23.48;10.38;;;;;;;;;;5014314;28;20022;-64
2022/12/27 01:32:48;;;;;;;16.73;8.10;;;;;;;;;;5014362;28;20441;-64
2022/12/27 01:35:14;;;;;;;28.52;9.57;;;;;;;;;;5013550;28;20026;-63
2022/12/27 01:37:40;;;;;;;16.13;7.63;;;;;;;;;;5012959;28;20061;-64
2022/12/27 01:40:07;;;;;;;16.27;7.88;;;;;;;;;;5014170;28;20030;-63
2022/12/27 01:42:51;;;;;;;18.58;8.55;;;;;;;;;;5014188;28;20094;-64
2022/12/27 01:45:24;;;;;;;20.45;9.50;;;;;;;;;;5012102;28;20018;-64
2022/12/27 01:47:56;;;;;;;23.58;9.38;;;;;;;;;;5012578;28;20091;-64
2022/12/27 01:50:41;;;;;;;21.45;9.25;;;;;;;;;;5013718;28;20022;-64
2022/12/27 01:53:17;;;;;;;19.88;9.13;;;;;;;;;;5013162;28;20066;-64
2022/12/27 01:55:48;;;;;;;17.17;8.70;;;;;;;;;;5013866;28;20026;-64
2022/12/27 01:58:34;;;;;;;19.10;8.80;;;;;;;;;;5013862;28;20026;-63
2022/12/27 02:01:01;;;;;;;16.60;8.23;;;;;;;;;;5012478;28;20026;-62
2022/12/27 02:03:35;;;;;;;19.42;10.25;;;;;;;;;;5013067;28;20022;-65
2022/12/27 02:06:02;;;;;;;18.98;9.68;;;;;;;;;;5012366;28;20033;-65
2022/12/27 02:08:28;;;;;;;18.10;9.25;;;;;;;;;;5012498;28;20033;-63
2022/12/27 02:10:55;;;;;;;16.80;9.13;;;;;;;;;;5013777;28;20022;-63
2022/12/27 02:13:21;;;;;;;18.02;9.60;;;;;;;;;;5012878;28;20535;-62
2022/12/27 02:15:47;;;;;;;19.90;8.90;;;;;;;;;;5012467;28;20340;-63
2022/12/27 02:18:13;;;;;;;16.80;8.38;;;;;;;;;;5012369;28;20720;-62
2022/12/27 02:20:59;;;;;;;19.08;9.38;;;;;;;;;;5011593;28;20083;-62
2022/12/27 02:26:18;;;;;;;22.27;9.52;;;;;;;;;;5013625;28;20029;-64
2022/12/27 02:28:44;;;;;;;19.58;9.05;;;;;;;;;;5013362;28;20030;-64
2022/12/27 02:31:14;;;;;;;18.45;9.80;;;;;;;;;;5011545;28;20087;-64
2022/12/27 02:33:45;;;;;;;18.85;9.80;;;;;;;;;;5012378;28;20037;-64
2022/12/27 02:36:15;;;;;;;15.57;8.85;;;;;;;;;;5013249;28;20044;-63
2022/12/27 02:38:44;;;;;;;18.50;10.18;;;;;;;;;;5013049;28;20029;-63
2022/12/27 02:55:31;;;;;;;18.50;9.65;;;;;;;;;;5012456;28;20421;-63
2022/12/27 02:58:06;;;;;;;22.63;10.48;;;;;;;;;;5012829;28;20030;-62
2022/12/27 03:03:34;;;;;;;20.35;9.65;;;;;;;;;;5012122;28;20406;-64
2022/12/27 03:09:04;;;;;;;19.20;8.55;;;;;;;;;;5012755;28;20185;-64
2022/12/27 03:17:29;;;;;;;21.17;9.55;;;;;;;;;;4952176;29;20109;-63
2022/12/27 03:25:32;;;;;;;18.48;9.02;;;;;;;;;;5012941;28;20168;-61
2022/12/27 03:33:31;;;;;;;21.92;9.68;;;;;;;;;;5011808;28;20405;-62
2022/12/27 03:38:57;;;;;;;22.90;10.40;;;;;;;;;;5012377;28;20080;-61
2022/12/27 03:44:25;;;;;;;20.00;9.93;;;;;;;;;;5011210;28;20045;-63
2022/12/27 03:47:05;;;;;;;19.75;9.10;;;;;;;;;;5010629;28;20383;-63
2022/12/27 03:49:31;;;;;;;15.63;8.85;;;;;;;;;;5011947;28;20029;-64
2022/12/27 03:52:03;;;;;;;22.02;9.25;;;;;;;;;;5010722;28;20026;-65
2022/12/27 03:54:30;;;;;;;24.13;10.80;;;;;;;;;;5009822;28;20025;-65
2022/12/27 03:56:58;;;;;;;18.13;9.38;;;;;;;;;;5011889;28;20041;-63
2022/12/27 03:59:24;;;;;;;23.60;11.00;;;;;;;;;;5012226;28;20042;-62
2022/12/27 04:01:50;;;;;;;23.30;9.65;;;;;;;;;;5012370;28;20026;-63
2022/12/27 04:04:16;;;;;;;17.45;9.07;;;;;;;;;;5010036;28;20490;-60
2022/12/27 04:06:42;;;;;;;19.85;9.32;;;;;;;;;;5010765;28;20029;-62
2022/12/27 04:36:35;;;;;;;19.33;10.63;;;;;;;;;;5011329;28;20416;-64
2022/12/27 04:39:01;;;;;;;20.83;10.23;;;;;;;;;;5011347;28;20104;-64
2022/12/27 04:55:21;;;;;;;18.88;10.35;;;;;;;;;;5014594;28;20057;-64
2022/12/27 04:57:47;;;;;;;20.58;11.43;;;;;;;;;;5014995;28;20596;-63
2022/12/27 05:02:59;;;;;;;20.98;11.63;;;;;;;;;;5014636;28;20041;-64
2022/12/27 05:05:26;;;;;;;22.58;12.00;;;;;;;;;;5014091;28;20109;-63
2022/12/27 05:16:06;;;;;;;19.08;10.25;;;;;;;;;;5014789;28;20528;-64
2022/12/27 05:18:32;;;;;;;21.77;12.00;;;;;;;;;;5014502;28;20030;-63
2022/12/27 05:21:02;;;;;;;17.90;10.80;;;;;;;;;;5013130;28;20033;-63
2022/12/27 05:26:19;;;;;;;20.02;11.48;;;;;;;;;;5014589;28;20137;-66
2022/12/27 05:28:46;;;;;;;20.30;11.85;;;;;;;;;;5014528;28;20024;-63
2022/12/27 05:31:12;;;;;;;24.30;12.00;;;;;;;;;;5013050;28;20032;-64
2022/12/27 05:33:38;;;;;;;21.58;12.18;;;;;;;;;;5013383;28;20474;-64
2022/12/27 05:36:04;;;;;;;27.02;12.63;;;;;;;;;;5012969;28;20105;-63
2022/12/27 05:38:30;;;;;;;22.15;13.38;;;;;;;;;;5014164;28;20032;-63
2022/12/27 05:40:59;;;;;;;19.55;12.45;;;;;;;;;;5013995;28;20134;-63
2022/12/27 05:43:25;;;;;;;21.95;12.48;;;;;;;;;;5012034;28;20036;-63
2022/12/27 05:45:51;;;;;;;20.80;12.57;;;;;;;;;;5013866;28;20076;-61
2022/12/27 05:48:17;;;;;;;19.52;12.70;;;;;;;;;;5013960;28;20026;-64
2022/12/27 05:50:43;;;;;;;21.42;13.57;;;;;;;;;;5012645;28;20562;-64
2022/12/27 05:53:09;;;;;;;27.90;12.43;;;;;;;;;;5013194;28;20080;-64
2022/12/27 05:55:35;;;;;;;23.40;12.50;;;;;;;;;;5013556;28;20088;-62
2022/12/27 05:58:01;;;;;;;19.85;13.10;;;;;;;;;;5013515;28;20026;-64
2022/12/27 06:00:27;;;;;;;21.95;11.95;;;;;;;;;;5013778;28;20026;-64
2022/12/27 06:02:53;;;;;;;21.17;12.52;;;;;;;;;;5013716;28;20064;-61
2022/12/27 06:05:19;;;;;;;22.75;12.13;;;;;;;;;;5013144;28;20030;-61
2022/12/27 06:07:45;;;;;;;20.73;12.07;;;;;;;;;;5013689;28;20101;-61
2022/12/27 06:10:11;;;;;;;24.58;12.32;;;;;;;;;;5013177;28;20443;-61
2022/12/27 06:12:37;;;;;;;20.73;11.38;;;;;;;;;;5013589;28;20037;-60
2022/12/27 06:15:04;;;;;;;22.90;10.68;;;;;;;;;;5012456;28;20493;-63
2022/12/27 06:17:30;;;;;;;18.50;10.75;;;;;;;;;;5013022;28;20044;-62
2022/12/27 06:19:56;;;;;;;24.23;11.23;;;;;;;;;;5013095;28;20022;-62
2022/12/27 06:22:22;;;;;;;19.40;11.07;;;;;;;;;;5009617;28;20036;-64
2022/12/27 06:24:48;;;;;;;16.73;9.90;;;;;;;;;;5012073;28;20018;-64
2022/12/27 06:27:14;;;;;;;22.33;11.80;;;;;;;;;;5011805;28;20022;-63
2022/12/27 06:29:40;;;;;;;21.63;11.57;;;;;;;;;;5013051;28;20033;-62
2022/12/27 06:32:06;;;;;;;19.85;11.80;;;;;;;;;;5012494;28;20029;-63
2022/12/27 06:34:32;;;;;;;30.92;14.70;;;;;;;;;;5010626;28;20068;-63
2022/12/27 06:36:58;;;;;;;21.50;11.82;;;;;;;;;;5012899;28;20054;-63
2022/12/27 06:39:24;;;;;;;19.17;11.27;;;;;;;;;;5012780;28;20461;-62
2022/12/27 06:41:53;;;;;;;20.67;11.45;;;;;;;;;;5011547;28;20026;-63
2022/12/27 06:44:20;;;;;;;20.80;11.65;;;;;;;;;;5011878;28;20030;-63
2022/12/27 06:46:46;;;;;;;22.15;13.05;;;;;;;;;;5011336;28;20429;-64
2022/12/27 06:49:12;;;;;;;21.80;11.65;;;;;;;;;;5012664;28;20109;-64
2022/12/27 06:51:38;;;;;;;20.30;11.88;;;;;;;;;;5011379;28;20116;-63
2022/12/27 06:54:04;;;;;;;21.13;11.60;;;;;;;;;;5011877;28;20109;-64
2022/12/27 06:56:30;;;;;;;21.30;11.68;;;;;;;;;;5011247;28;20033;-63
2022/12/27 06:58:56;;;;;;;22.50;12.50;;;;;;;;;;5012486;28;20366;-64
2022/12/27 07:01:27;;;;;;;22.27;13.38;;;;;;;;;;5012448;28;20109;-63
2022/12/27 07:03:54;;;;;;;24.70;11.85;;;;;;;;;;5011496;28;20469;-62
2022/12/27 07:06:20;;;;;;;18.75;12.00;;;;;;;;;;5041923;23;20085;-58
2022/12/27 07:08:47;;;;;;;25.13;13.35;;;;;;;;;;5030347;28;20034;-58
2022/12/27 07:11:13;;;;;;;21.67;11.50;;;;;;;;;;5030894;28;20029;-60
2022/12/27 07:13:40;;;;;;;21.52;11.55;;;;;;;;;;5030063;28;20025;-58
2022/12/27 07:16:07;;;;;;;23.35;12.25;;;;;;;;;;5030829;28;20393;-59
2022/12/27 07:18:34;;;;;;;24.48;12.50;;;;;;;;;;5030676;28;20025;-58
2022/12/27 07:21:10;;;;;;;24.73;12.65;;;;;;;;;;5030615;28;20029;-58
2022/12/27 07:23:37;;;;;;;24.52;12.40;;;;;;;;;;5028769;28;20029;-59
2022/12/27 07:26:04;;;;;;;20.17;12.40;;;;;;;;;;5030588;28;20090;-59
2022/12/27 07:28:30;;;;;;;24.40;12.73;;;;;;;;;;5030582;28;20017;-58
2022/12/27 07:30:56;;;;;;;19.52;12.45;;;;;;;;;;5030384;28;20030;-60
2022/12/27 07:33:22;;;;;;;20.33;13.15;;;;;;;;;;5029704;28;20026;-59
2022/12/27 07:35:48;;;;;;;21.38;14.43;;;;;;;;;;5028998;28;20121;-59
2022/12/27 07:38:14;;;;;;;22.58;13.93;;;;;;;;;;5029145;28;20577;-60
2022/12/27 07:40:40;;;;;;;23.42;12.77;;;;;;;;;;5030413;28;20095;-60
2022/12/27 07:43:06;;;;;;;22.88;12.93;;;;;;;;;;5029454;28;20071;-60
2022/12/27 07:45:32;;;;;;;23.05;13.88;;;;;;;;;;5030223;28;20446;-60
2022/12/27 07:47:58;;;;;;;25.35;13.00;;;;;;;;;;5030453;28;20064;-59
2022/12/27 07:50:24;;;;;;;23.38;13.75;;;;;;;;;;5030456;28;20029;-55
2022/12/27 07:52:50;;;;;;;23.98;12.60;;;;;;;;;;5030136;28;20042;-57
2022/12/27 07:55:16;;;;;;;22.17;13.15;;;;;;;;;;5029525;28;20029;-60
2022/12/27 07:57:42;;;;;;;22.40;14.00;;;;;;;;;;5029002;28;20167;-59
2022/12/27 08:00:08;;;;;;;22.00;12.57;;;;;;;;;;5030842;28;20120;-56
2022/12/27 08:02:34;;;;;;;25.17;12.55;;;;;;;;;;5030358;28;20160;-62
2022/12/27 08:05:00;;;;;;;25.50;11.90;;;;;;;;;;5028204;28;20159;-60
2022/12/27 08:07:26;;;;;;;21.73;12.82;;;;;;;;;;5030103;28;20389;-58
2022/12/27 08:09:52;;;;;;;19.17;13.60;;;;;;;;;;5030125;28;20033;-57
2022/12/27 08:12:18;;;;;;;25.40;13.65;;;;;;;;;;5030348;28;20025;-62
2022/12/27 08:14:44;;;;;;;25.15;13.07;;;;;;;;;;5029449;28;20029;-60
2022/12/27 08:17:21;;;;;;;24.20;11.75;;;;;;;;;;5030372;28;20026;-59
2022/12/27 08:19:47;;;;;;;19.05;11.93;;;;;;;;;;5032135;28;20037;-61
2022/12/27 08:22:13;;;;;;;20.90;12.35;;;;;;;;;;5034110;28;20029;-59
2022/12/27 08:24:40;;;;;;;22.17;12.02;;;;;;;;;;5031880;28;20029;-60
2022/12/27 08:27:06;;;;;;;19.15;12.73;;;;;;;;;;5034029;28;20030;-62
2022/12/27 08:29:32;;;;;;;21.75;11.80;;;;;;;;;;5033837;28;20440;-65
2022/12/27 08:31:58;;;;;;;20.92;12.65;;;;;;;;;;5032939;28;20029;-65
2022/12/27 08:34:24;;;;;;;20.10;12.35;;;;;;;;;;5033116;28;20088;-66
2022/12/27 08:36:51;;;;;;;18.88;11.82;;;;;;;;;;5033916;28;20077;-67
2022/12/27 08:39:17;;;;;;;22.75;12.52;;;;;;;;;;5032653;28;20065;-66
2022/12/27 08:41:43;;;;;;;19.73;11.70;;;;;;;;;;5034025;28;20025;-66
2022/12/27 08:44:10;;;;;;;21.55;12.70;;;;;;;;;;5032568;28;20096;-66
2022/12/27 08:46:36;;;;;;;20.98;13.48;;;;;;;;;;5033855;28;20555;-66
2022/12/27 08:49:02;;;;;;;26.50;13.48;;;;;;;;;;5033654;28;20025;-67
2022/12/27 08:51:28;;;;;;;22.85;14.00;;;;;;;;;;5032507;28;20031;-66
2022/12/27 08:53:54;;;;;;;25.83;14.75;;;;;;;;;;5032809;28;20025;-67
2022/12/27 08:56:20;;;;;;;31.25;15.13;;;;;;;;;;5034005;28;20458;-66
2022/12/27 08:58:50;;;;;;;24.88;12.70;;;;;;;;;;5032131;28;20025;-65
2022/12/27 09:01:16;;;;;;;19.63;11.43;;;;;;;;;;5033450;28;20040;-65
2022/12/27 09:03:42;;;;;;;21.77;12.65;;;;;;;;;;5032844;28;20026;-66
2022/12/27 09:06:15;;;;;;;21.67;11.73;;;;;;;;;;5033806;28;20060;-65
2022/12/27 09:08:42;;;;;;;18.95;11.80;;;;;;;;;;5032175;28;20034;-63
2022/12/27 09:11:13;;;;;;;19.80;10.82;;;;;;;;;;5033665;28;20478;-63
2022/12/27 09:13:39;;;;;;;22.05;11.45;;;;;;;;;;5033222;28;20069;-65
2022/12/27 09:16:07;;;;;;;17.77;10.27;;;;;;;;;;5033547;28;20039;-66
2022/12/27 09:18:33;;;;;;;22.40;10.75;;;;;;;;;;5032290;28;20024;-66
2022/12/27 09:21:02;;;;;;;20.85;10.15;;;;;;;;;;5033184;28;20022;-66
2022/12/27 09:23:29;;;;;;;19.83;10.50;;;;;;;;;;5032930;28;20030;-67
2022/12/27 09:25:55;;;;;;;21.75;11.25;;;;;;;;;;5034028;28;20025;-66
2022/12/27 09:28:21;;;;;;;19.13;10.98;;;;;;;;;;5033630;28;20128;-64
2022/12/27 09:30:47;;;;;;;18.58;11.38;;;;;;;;;;5032651;28;20036;-66
2022/12/27 09:33:13;;;;;;;20.35;11.55;;;;;;;;;;5032785;28;20033;-65
2022/12/27 09:35:39;;;;;;;23.52;12.65;;;;;;;;;;5032078;28;20029;-67
2022/12/27 09:38:05;;;;;;;25.25;11.95;;;;;;;;;;5033559;28;20029;-67
2022/12/27 09:40:31;;;;;;;20.95;12.85;;;;;;;;;;5032606;28;20112;-67
2022/12/27 09:43:08;;;;;;;20.63;11.50;;;;;;;;;;5027776;28;20405;-64
2022/12/27 09:45:34;;;;;;;26.95;15.80;;;;;;;;;;5032432;28;20021;-64
2022/12/27 09:48:08;;;;;;;22.40;13.07;;;;;;;;;;5031980;28;20119;-67
2022/12/27 09:50:42;;;;;;;21.70;12.40;;;;;;;;;;5026079;28;20087;-66
2022/12/27 09:53:16;;;;;;;19.80;11.48;;;;;;;;;;5025161;28;20095;-68
2022/12/27 09:55:49;;;;;;;20.65;11.45;;;;;;;;;;5033191;28;20504;-68
2022/12/27 09:58:27;;;;;;;23.65;12.60;;;;;;;;;;5033584;28;20401;-66
2022/12/27 10:00:53;;;;;;;20.40;10.25;;;;;;;;;;5033664;28;20083;-67
2022/12/27 10:03:22;;;;;;;24.15;13.05;;;;;;;;;;5032498;28;20025;-66
2022/12/27 10:05:53;;;;;;;20.33;11.98;;;;;;;;;;5032751;28;20038;-68
2022/12/27 10:08:32;;;;;;;22.35;12.40;;;;;;;;;;5032808;28;20067;-68
2022/12/27 10:11:05;;;;;;;22.38;12.95;;;;;;;;;;5032903;28;20022;-67
2022/12/27 10:13:40;;;;;;;20.98;12.73;;;;;;;;;;5031866;28;20080;-67
2022/12/27 10:16:25;;;;;;;21.45;12.90;;;;;;;;;;5032950;28;20105;-66
2022/12/27 10:18:51;;;;;;;23.42;12.57;;;;;;;;;;5032810;28;20092;-68
2022/12/27 10:21:21;;;;;;;30.15;14.32;;;;;;;;;;5032571;28;20029;-67
2022/12/27 10:23:55;;;;;;;21.10;12.20;;;;;;;;;;5030911;28;20384;-67
2022/12/27 10:26:21;;;;;;;21.58;12.75;;;;;;;;;;5032869;28;20097;-66
2022/12/27 10:28:57;;;;;;;22.33;11.52;;;;;;;;;;5032869;28;20037;-67
2022/12/27 10:31:23;;;;;;;21.27;12.68;;;;;;;;;;5031364;28;20025;-68
2022/12/27 10:33:50;;;;;;;20.23;12.57;;;;;;;;;;5032562;28;20184;-66
2022/12/27 10:36:18;;;;;;;20.92;12.18;;;;;;;;;;5031709;28;20060;-67
2022/12/27 10:38:44;;;;;;;23.55;13.52;;;;;;;;;;5031967;28;20025;-65
2022/12/27 10:41:28;;;;;;;25.30;11.85;;;;;;;;;;5032500;28;20110;-66
2022/12/27 10:43:55;;;;;;;19.77;11.75;;;;;;;;;;5031188;28;20096;-67
2022/12/27 10:46:23;;;;;;;21.52;10.95;;;;;;;;;;5031925;28;20102;-67
2022/12/27 10:49:00;;;;;;;24.52;12.85;;;;;;;;;;5030815;28;20062;-65
2022/12/27 10:51:28;;;;;;;19.63;11.68;;;;;;;;;;5032307;28;20168;-68
2022/12/27 10:53:57;;;;;;;21.23;11.00;;;;;;;;;;5031533;28;20029;-67
2022/12/27 10:56:34;;;;;;;19.73;11.40;;;;;;;;;;5032192;28;20048;-66
2022/12/27 10:59:06;;;;;;;19.70;10.93;;;;;;;;;;5031815;28;20110;-68
2022/12/27 11:01:33;;;;;;;18.73;10.70;;;;;;;;;;5031950;28;20026;-66
2022/12/27 11:04:13;;;;;;;20.73;10.38;;;;;;;;;;5030907;28;20018;-67
2022/12/27 11:06:39;;;;;;;26.83;11.88;;;;;;;;;;5031250;28;20053;-67
2022/12/27 11:09:25;;;;;;;19.20;10.25;;;;;;;;;;5031822;28;20025;-66
2022/12/27 11:11:51;;;;;;;20.98;11.00;;;;;;;;;;5030369;28;20119;-66
2022/12/27 11:14:18;;;;;;;26.63;9.70;;;;;;;;;;5030686;28;20069;-67
2022/12/27 11:16:44;;;;;;;18.90;8.98;;;;;;;;;;5031461;28;20389;-67
2022/12/27 11:19:24;;;;;;;17.80;9.45;;;;;;;;;;5030022;28;20025;-65
2022/12/27 11:21:50;;;;;;;16.67;8.88;;;;;;;;;;5032059;28;20037;-68
2022/12/27 11:24:17;;;;;;;19.30;9.65;;;;;;;;;;5030706;28;20026;-67
2022/12/27 11:27:09;;;;;;;17.15;9.55;;;;;;;;;;5031745;28;20022;-68
2022/12/27 11:29:35;;;;;;;26.63;10.57;;;;;;;;;;5029417;28;20065;-69
2022/12/27 11:32:06;;;;;;;22.73;10.70;;;;;;;;;;5029740;28;20026;-69
2022/12/27 11:34:35;;;;;;;21.27;9.95;;;;;;;;;;5030904;28;20505;-67
2022/12/27 11:37:06;;;;;;;19.67;10.23;;;;;;;;;;5031233;28;20136;-67
2022/12/27 11:39:45;;;;;;;17.77;10.00;;;;;;;;;;5030675;28;20104;-68
2022/12/27 11:42:15;;;;;;;19.20;10.57;;;;;;;;;;5030887;28;20025;-67
2022/12/27 11:44:43;;;;;;;18.23;9.73;;;;;;;;;;5032905;28;20099;-67
2022/12/27 11:47:16;;;;;;;19.70;10.38;;;;;;;;;;5031804;28;20033;-66
2022/12/27 11:49:51;;;;;;;20.63;9.85;;;;;;;;;;5031190;28;20116;-63
2022/12/27 11:52:30;;;;;;;20.02;9.70;;;;;;;;;;5029675;28;20037;-67
2022/12/27 11:54:56;;;;;;;20.13;11.57;;;;;;;;;;5027999;28;20025;-68
2022/12/27 11:57:55;;;;;;;19.13;10.45;;;;;;;;;;5031093;28;20025;-68
2022/12/27 12:00:22;;;;;;;22.65;9.50;;;;;;;;;;5019265;28;20409;-65
2022/12/27 12:03:07;;;;;;;23.27;10.10;;;;;;;;;;5030305;28;20152;-67
2022/12/27 12:05:45;;;;;;;20.45;9.75;;;;;;;;;;5030679;28;20048;-68
2022/12/27 12:08:34;;;;;;;17.70;8.95;;;;;;;;;;5031494;28;20037;-67
2022/12/27 12:11:06;;;;;;;20.90;9.38;;;;;;;;;;5021937;28;20037;-66
2022/12/27 12:13:32;;;;;;;19.10;8.93;;;;;;;;;;5026706;28;20030;-66
2022/12/27 12:15:58;;;;;;;21.02;9.90;;;;;;;;;;5027486;28;20120;-66
2022/12/27 12:18:24;;;;;;;24.30;11.20;;;;;;;;;;5029955;28;20022;-67
2022/12/27 12:21:23;;;;;;;21.10;9.60;;;;;;;;;;5029132;28;20045;-67
2022/12/27 12:24:08;;;;;;;18.05;8.45;;;;;;;;;;4996505;28;20072;-65
2022/12/27 12:26:57;;;;;;;17.77;8.70;;;;;;;;;;5029907;28;20021;-65
2022/12/27 12:29:38;;;;;;;20.60;9.38;;;;;;;;;;5009338;28;20021;-67
2022/12/27 12:32:21;;;;;;;22.23;9.23;;;;;;;;;;5028857;28;20033;-67
2022/12/27 12:35:06;;;;;;;19.85;8.50;;;;;;;;;;5028107;28;20017;-66
2022/12/27 12:37:53;;;;;;;18.38;9.00;;;;;;;;;;5028839;28;20025;-68
2022/12/27 12:40:22;;;;;;;16.55;8.80;;;;;;;;;;5028338;28;20409;-67
2022/12/27 12:42:48;;;;;;;16.60;8.35;;;;;;;;;;5028388;28;20036;-68
2022/12/27 12:45:17;;;;;;;22.40;9.02;;;;;;;;;;5027843;28;20394;-66
2022/12/27 12:48:02;;;;;;;18.55;8.20;;;;;;;;;;5030481;28;20120;-67
2022/12/27 12:50:33;;;;;;;18.00;8.90;;;;;;;;;;5028580;28;20051;-67
2022/12/27 12:53:19;;;;;;;18.77;8.95;;;;;;;;;;5028891;28;20148;-67
2022/12/27 12:55:57;;;;;;;20.30;8.20;;;;;;;;;;4648143;28;10000102;-67
2022/12/27 12:58:31;;;;;;;21.70;8.82;;;;;;;;;;5025836;28;20087;-68
2022/12/27 13:01:16;;;;;;;21.67;9.02;;;;;;;;;;5026368;28;20054;-66
2022/12/27 13:03:44;;;;;;;18.63;8.40;;;;;;;;;;5022996;28;20032;-65
2022/12/27 13:06:11;;;;;;;;;;;;;;;;;;5025793;22;20048;-64
2022/12/27 13:08:46;;;;;;;20.95;9.02;;;;;;;;;;4990847;28;19913;-65
2022/12/27 13:11:18;;;;;;;20.83;8.82;;;;;;;;;;4991179;28;20125;-68
2022/12/27 13:13:50;;;;;;;20.90;8.35;;;;;;;;;;4998138;28;20113;-65
2022/12/27 13:16:40;;;;;;;16.73;8.10;;;;;;;;;;5011536;28;20125;-66
2022/12/27 13:19:15;;;;;;;21.55;9.27;;;;;;;;;;5003503;28;20030;-69
2022/12/27 13:22:00;;;;;;;18.85;9.38;;;;;;;;;;5009861;28;20034;-67
2022/12/27 13:24:29;;;;;;;18.02;8.82;;;;;;;;;;5009658;28;20036;-70
2022/12/27 13:27:13;;;;;;;18.65;9.07;;;;;;;;;;5011354;28;20025;-68
2022/12/27 13:29:58;;;;;;;22.58;9.68;;;;;;;;;;5011147;28;20018;-66
2022/12/27 13:32:40;;;;;;;18.33;8.57;;;;;;;;;;4970299;28;20033;-71
2022/12/27 13:35:06;;;;;;;20.92;8.27;;;;;;;;;;4976093;28;20049;-69
2022/12/27 13:37:46;;;;;;;15.88;8.25;;;;;;;;;;4988985;28;20038;-68
2022/12/27 13:40:41;;;;;;;15.23;7.85;;;;;;;;;;4989936;28;20547;-67
2022/12/27 13:43:10;;;;;;;18.50;8.20;;;;;;;;;;4989660;28;20228;-69
2022/12/27 13:45:55;;;;;;;20.15;8.80;;;;;;;;;;4988235;28;20019;-68
2022/12/27 13:48:27;;;;;;;18.33;8.20;;;;;;;;;;4990978;28;20025;-68
2022/12/27 13:51:04;;;;;;;20.98;9.15;;;;;;;;;;4988505;28;20739;-70
2022/12/27 13:53:45;;;;;;;19.25;8.35;;;;;;;;;;4989884;28;20105;-68
2022/12/27 13:56:34;;;;;;;18.38;8.43;;;;;;;;;;4990162;28;20109;-70
2022/12/27 13:59:00;;;;;;;18.80;8.57;;;;;;;;;;4985990;28;20045;-68
2022/12/27 14:01:29;;;;;;;18.20;8.50;;;;;;;;;;4969607;28;20034;-69
2022/12/27 14:04:04;;;;;;;20.35;8.02;;;;;;;;;;4984618;28;20277;-68
2022/12/27 14:06:47;;;;;;;15.15;7.90;;;;;;;;;;4989681;28;20399;-71
2022/12/27 14:09:19;;;;;;;17.95;8.48;;;;;;;;;;4990522;28;20031;-69
2022/12/27 14:11:57;;;;;;;17.23;8.40;;;;;;;;;;4991881;28;20443;-66
2022/12/27 14:14:25;;;;;;;16.98;8.02;;;;;;;;;;4993226;28;20146;-67
2022/12/27 14:16:59;;;;;;;17.23;7.97;;;;;;;;;;4993481;28;20033;-67
2022/12/27 14:19:48;;;;;;;18.08;8.57;;;;;;;;;;4992374;28;20030;-67
2022/12/27 14:22:20;;;;;;;20.85;7.90;;;;;;;;;;4986640;28;20042;-69
2022/12/27 14:24:46;;;;;;;16.05;7.70;;;;;;;;;;4984880;28;20395;-67
2022/12/27 14:27:25;;;;;;;21.40;8.57;;;;;;;;;;4993622;28;20030;-67
2022/12/27 14:30:03;;;;;;;17.23;9.02;;;;;;;;;;4992077;28;20030;-65
2022/12/27 14:32:35;;;;;;;18.23;8.35;;;;;;;;;;4992459;28;20026;-65
2022/12/27 14:35:20;;;;;;;19.92;9.02;;;;;;;;;;4991070;28;20034;-67
2022/12/27 14:37:57;;;;;;;17.60;8.63;;;;;;;;;;4993199;28;20406;-68
2022/12/27 14:40:30;;;;;;;17.55;9.38;;;;;;;;;;4993539;28;20030;-68
2022/12/27 14:42:56;;;;;;;21.48;9.63;;;;;;;;;;4992872;28;20026;-67
2022/12/27 14:45:22;;;;;;;21.50;9.18;;;;;;;;;;4990865;28;20084;-68
2022/12/27 14:48:07;;;;;;;18.35;9.55;;;;;;;;;;4991491;28;20058;-67
2022/12/27 14:50:48;;;;;;;20.75;9.50;;;;;;;;;;4991190;28;20109;-67
2022/12/27 14:53:33;;;;;;;21.02;9.50;;;;;;;;;;4990764;28;20041;-67
2022/12/27 14:56:19;;;;;;;20.63;9.45;;;;;;;;;;4991458;28;20030;-67
2022/12/27 14:58:46;;;;;;;19.35;8.68;;;;;;;;;;4952996;28;20046;-67
2022/12/27 15:01:38;;;;;;;17.77;8.75;;;;;;;;;;4973368;28;20034;-66
2022/12/27 15:04:10;;;;;;;18.13;8.90;;;;;;;;;;4972205;28;20039;-67
2022/12/27 15:06:55;;;;;;;23.83;11.65;;;;;;;;;;5011981;28;20045;-66
2022/12/27 15:09:40;;;;;;;19.92;8.88;;;;;;;;;;5011006;28;20026;-67
2022/12/27 15:12:11;;;;;;;19.80;9.32;;;;;;;;;;5012506;28;20088;-64
2022/12/27 15:14:53;;;;;;;20.52;9.07;;;;;;;;;;5011837;28;20375;-67
2022/12/27 15:17:38;;;;;;;18.48;8.93;;;;;;;;;;5010912;28;20030;-62
2022/12/27 15:20:13;;;;;;;17.33;8.80;;;;;;;;;;5010282;28;20080;-69
2022/12/27 15:22:49;;;;;;;19.10;9.02;;;;;;;;;;5011373;28;20029;-66
2022/12/27 15:25:27;;;;;;;18.95;9.43;;;;;;;;;;5011818;28;20038;-68
2022/12/27 15:27:53;;;;;;;19.67;9.50;;;;;;;;;;5012348;28;20375;-68
2022/12/27 15:30:28;;;;;;;18.70;9.05;;;;;;;;;;5012183;28;20032;-67
2022/12/27 15:32:57;;;;;;;18.75;9.18;;;;;;;;;;5011456;28;20343;-70
2022/12/27 15:35:43;;;;;;;17.15;8.88;;;;;;;;;;5012034;28;20080;-70
2022/12/27 15:38:11;;;;;;;22.38;10.05;;;;;;;;;;5012556;28;20022;-68
2022/12/27 15:40:46;;;;;;;18.58;8.85;;;;;;;;;;5010921;28;20084;-67
2022/12/27 15:43:21;;;;;;;16.00;9.30;;;;;;;;;;5010270;28;20092;-67
2022/12/27 15:45:47;;;;;;;16.83;9.55;;;;;;;;;;5011795;28;20030;-66
2022/12/27 15:48:28;;;;;;;24.48;9.70;;;;;;;;;;5012321;28;20018;-66
2022/12/27 15:51:07;;;;;;;21.93;10.97;;;;;;;;;;4662296;28;10001317;-65
2022/12/27 15:53:35;;;;;;;21.48;9.93;;;;;;;;;;4990498;28;20030;-66
2022/12/27 15:56:08;;;;;;;18.70;9.80;;;;;;;;;;4991917;28;20078;-66
2022/12/27 15:58:34;;;;;;;20.42;10.40;;;;;;;;;;4999846;28;20037;-65
2022/12/27 16:01:15;;;;;;;19.88;9.85;;;;;;;;;;5011473;28;20026;-65
2022/12/27 16:03:43;;;;;;;18.42;9.73;;;;;;;;;;4998705;28;20023;-64
2022/12/27 16:06:29;;;;;;;23.58;10.27;;;;;;;;;;5009191;28;20113;-66
2022/12/27 16:09:13;;;;;;;19.65;9.20;;;;;;;;;;4996123;28;20117;-65
2022/12/27 16:12:00;;;;;;;20.58;9.55;;;;;;;;;;4990168;28;20088;-65
2022/12/27 16:14:30;;;;;;;19.83;9.85;;;;;;;;;;4978962;28;20049;-65
2022/12/27 16:17:09;;;;;;;18.67;10.02;;;;;;;;;;4971557;28;20039;-67
2022/12/27 16:19:47;;;;;;;18.75;9.85;;;;;;;;;;4970774;28;20130;-65
2022/12/27 16:22:21;;;;;;;19.70;9.95;;;;;;;;;;4972307;28;20034;-66
2022/12/27 16:24:47;;;;;;;19.58;9.20;;;;;;;;;;4971459;28;20027;-68
2022/12/27 16:27:21;;;;;;;21.88;10.73;;;;;;;;;;4968901;28;20023;-67